Monatstabelle

Bitte in den Auwahlmenüs den gewünschte Zeiraum wählen und die Schaltfläche "Anfrage absenden" betätigen. Beginn der Aufzeichnung ist 2007 - Dezember. Vor diesem Zeitraum sind keine Daten verfügbar.

2019 - November

 

Datum Temperatur (°C) Luftdruck (hPa) Luftfeuchte (%) Regen
(l/m²)
Wind (km/h)
avg: min: max: avg: min: max: avg: min: max: avg: max:
01.11.2019 6,2 3,7 10,2 1011,4 1006,1 1019,4 72 60 86 0,0 12,5 19,2
02.11.2019 7,7 2,8 10,3 1000,0 996,8 1006,1 81 72 88 0,0 0,4 14,3
03.11.2019 15,1 8,9 17,9 990,2 987,8 996,8 75 70 81 0,0 12,7 19,6
04.11.2019 16,9 16,9 16,9 994,8 987,9 997,5 75 75 75 3,6 4,9 12,7
05.11.2019 16,9 16,9 16,9 996,8 995,7 997,8 75 75 75 14,8 2,6 4,5
06.11.2019 16,9 16,9 16,9 1002,3 997,5 1003,9 75 75 75 6,4 1,4 8,2
07.11.2019 16,9 16,9 16,9 1004,1 1003,0 1004,8 75 75 75 2,1 4,3 13,0
08.11.2019 16,9 16,9 16,9 1003,1 1002,1 1004,4 75 75 75 0,0 5,2 17,4
09.11.2019 16,9 16,9 16,9 1007,1 1002,4 1009,0 75 75 75 5,1 2,4 10,1
10.11.2019 8,6 5,1 16,9 1009,8 1006,4 1012,9 77 73 85 0,0 3,2 12,7
11.11.2019 4,8 -1,4 10,2 1009,2 1007,0 1013,5 82 67 95 0,0 10,1 23,5
12.11.2019 5,2 4,5 7,1 1002,7 1000,5 1007,2 91 81 92 13,3 1,5 18,8
13.11.2019 3,7 3,5 4,5 1000,9 997,5 1005,1 93 92 94 13,6 1,1 9,8
14.11.2019 6,6 0,4 10,3 1006,1 1004,8 1006,4 79 68 95 0,1 4,6 19,8
15.11.2019 9,0 7,1 10,5 1005,3 1004,4 1006,0 85 73 88 0,0 9,3 22,4
16.11.2019 11,4 9,1 13,0 1009,8 1004,1 1012,0 79 75 85 0,5 8,3 18,7
17.11.2019 11,5 7,7 15,3 1006,8 1004,8 1010,9 84 71 94 0,0 8,7 14,5
18.11.2019 10,1 8,3 15,3 1009,3 1002,9 1014,0 75 57 92 1,2 2,8 12,6
19.11.2019 10,2 6,3 15,3 1014,3 1013,4 1016,1 74 55 83 0,0 8,6 15,9
20.11.2019 6,7 4,7 10,0 1010,2 1008,1 1013,5 92 76 93 12,5 1,0 13,0
21.11.2019 9,5 7,2 13,1 1007,7 1006,7 1008,9 83 73 94 0,8 9,8 17,7
22.11.2019 9,0 7,7 12,1 1009,3 1008,3 1010,1 79 68 83 0,1 12,9 21,7
23.11.2019 7,6 7,1 10,6 1006,8 1006,0 1009,5 84 76 86 0,0 16,9 20,1
24.11.2019 10,3 7,1 14,5 1007,6 1006,3 1008,4 75 64 85 0,0 10,9 19,6
25.11.2019 9,7 9,7 9,7 1008,0 1007,1 1008,8 74 74 74 0,0 1,3 5,8
26.11.2019 9,7 9,7 9,7 1007,1 1005,2 1008,8 74 74 74 0,0 4,1 9,0
27.11.2019 9,7 9,7 9,7 999,3 995,9 1005,2 74 74 74 0,3 3,8 20,3
28.11.2019 9,7 9,7 9,7 999,7 998,2 1000,8 74 74 74 2,3 1,1 10,6
29.11.2019 9,7 9,7 9,7 1005,2 999,8 1010,4 74 74 74 0,0 6,9 18,5
30.11.2019 5,2 2,7 9,7 1018,8 1010,4 1021,7 70 49 74 0,3 4,9 20,3
avg. 10,3 1005,4 78   ---
  Summe Regen: 77,0  
 
Min-Datum 11.11.2019 03.11.2019 30.11.2019 --- ---
Min-Zeit 07:02 23:36 12:02 --- ---
Minimum -1,4 987,8 49 --- ---
 

Max-Datum

03.11.2019 30.11.2019 11.11.2019 05.11.2019 11.11.2019
Max-Zeit 13:34 23:56 09:26 10:10 15:34
Maximum 17,9 1021,7 95 14,8 23,5
 

 

  Letztes Jahr
gleiches Monat
Eistage max < 0°C 0 0
Frosttage min < 0°C 1 8
Sommertage max >=25°C 0 0
Heiße Tage max >=30°C 0 0

 

<<< nach oben >>>